createdAt,value
2022-11-29T00:01:18.519Z,20.05
2022-11-29T00:03:45.311Z,20.85
2022-11-29T00:06:17.979Z,23.95
2022-11-29T00:08:45.027Z,20.75
2022-11-29T00:11:40.105Z,20.10
2022-11-29T00:14:08.253Z,21.33
2022-11-29T00:16:35.210Z,20.17
2022-11-29T00:19:02.255Z,22.50
2022-11-29T00:21:29.510Z,23.55
2022-11-29T00:23:56.297Z,18.50
2022-11-29T00:26:23.394Z,22.83
2022-11-29T00:28:50.162Z,20.38
2022-11-29T00:31:25.050Z,17.35
2022-11-29T00:33:52.294Z,17.80
2022-11-29T00:36:19.838Z,20.67
2022-11-29T00:38:46.618Z,21.60
2022-11-29T00:41:13.446Z,24.58
2022-11-29T00:43:40.635Z,18.90
2022-11-29T00:46:08.049Z,20.10
2022-11-29T00:48:35.357Z,20.85
2022-11-29T00:51:02.505Z,19.65
2022-11-29T00:53:29.261Z,20.58
2022-11-29T00:55:56.174Z,20.70
2022-11-29T00:58:23.273Z,19.50
2022-11-29T01:00:50.011Z,17.60
2022-11-29T01:03:17.448Z,20.33
2022-11-29T01:05:44.878Z,19.10
2022-11-29T01:08:12.528Z,20.83
2022-11-29T01:10:39.315Z,20.88
2022-11-29T01:13:06.083Z,18.67
2022-11-29T01:15:33.059Z,18.85
2022-11-29T01:17:59.834Z,19.45
2022-11-29T01:20:26.970Z,23.70
2022-11-29T01:22:53.698Z,21.88
2022-11-29T01:25:20.644Z,21.52
2022-11-29T01:27:47.537Z,24.23
2022-11-29T01:30:14.707Z,19.05
2022-11-29T01:32:41.887Z,22.17
2022-11-29T01:35:09.045Z,21.00
2022-11-29T01:37:36.059Z,20.65
2022-11-29T01:40:03.632Z,20.88
2022-11-29T01:42:30.401Z,19.42
2022-11-29T01:45:02.039Z,23.10
2022-11-29T01:47:29.170Z,17.48
2022-11-29T01:49:56.147Z,19.55
2022-11-29T01:52:25.408Z,22.40
2022-11-29T01:54:56.093Z,26.45
2022-11-29T01:57:23.361Z,20.05
2022-11-29T01:59:55.084Z,20.63
2022-11-29T02:02:30.390Z,20.83
2022-11-29T02:04:58.280Z,18.70
2022-11-29T02:07:25.083Z,19.65
2022-11-29T02:09:51.873Z,22.23
2022-11-29T02:12:30.894Z,21.52
2022-11-29T02:15:07.803Z,20.85
2022-11-29T02:18:06.904Z,19.05
2022-11-29T02:20:39.157Z,19.25
2022-11-29T02:23:36.901Z,14.60
2022-11-29T02:26:48.966Z,18.23
2022-11-29T02:29:40.157Z,19.10
2022-11-29T02:32:37.469Z,17.20
2022-11-29T02:35:41.601Z,19.63
2022-11-29T02:38:20.812Z,20.65
2022-11-29T02:40:59.528Z,24.38
2022-11-29T02:43:32.666Z,18.17
2022-11-29T02:46:56.696Z,18.00
2022-11-29T02:49:30.670Z,20.70
2022-11-29T02:52:08.788Z,20.77
2022-11-29T02:54:44.840Z,19.95
2022-11-29T02:57:23.703Z,18.45
2022-11-29T03:00:06.694Z,19.42
2022-11-29T03:02:40.733Z,20.83
2022-11-29T03:05:20.100Z,24.23
2022-11-29T03:08:01.074Z,21.27
2022-11-29T03:10:33.007Z,25.13
2022-11-29T03:13:00.138Z,25.90
2022-11-29T03:15:29.854Z,22.17
2022-11-29T03:18:15.616Z,28.83
2022-11-29T03:21:14.042Z,23.48
2022-11-29T03:23:47.950Z,26.70
2022-11-29T03:26:19.177Z,30.88
2022-11-29T03:29:17.896Z,22.75
2022-11-29T03:32:12.794Z,22.33
2022-11-29T03:35:05.528Z,26.33
2022-11-29T03:37:55.285Z,24.45
2022-11-29T03:40:48.276Z,24.60
2022-11-29T03:43:30.781Z,23.95
2022-11-29T03:46:23.738Z,24.57
2022-11-29T03:48:57.700Z,26.23
2022-11-29T03:51:52.017Z,24.30
2022-11-29T03:54:26.216Z,25.13
2022-11-29T03:56:53.358Z,19.67
2022-11-29T03:59:41.659Z,21.55
2022-11-29T04:02:25.196Z,24.10
2022-11-29T04:05:10.619Z,20.63
2022-11-29T04:07:57.767Z,23.20
2022-11-29T04:10:42.870Z,26.92
2022-11-29T04:13:58.092Z,26.00
2022-11-29T04:16:54.941Z,23.58
2022-11-29T04:19:59.557Z,23.02
2022-11-29T04:22:40.609Z,21.90
2022-11-29T04:25:41.222Z,28.98
2022-11-29T04:28:38.358Z,25.15
2022-11-29T04:31:17.801Z,25.67
2022-11-29T04:34:07.722Z,31.00
2022-11-29T04:37:05.964Z,26.25
2022-11-29T04:39:42.652Z,25.00
2022-11-29T04:42:21.723Z,25.40
2022-11-29T04:45:16.045Z,25.08
2022-11-29T04:47:45.644Z,22.90
2022-11-29T04:50:24.619Z,29.05
2022-11-29T04:53:42.158Z,26.70
2022-11-29T04:56:29.799Z,26.13
2022-11-29T04:58:56.521Z,24.08
2022-11-29T05:01:36.366Z,29.73
2022-11-29T05:04:19.500Z,26.13
2022-11-29T05:07:38.642Z,26.50
2022-11-29T05:10:23.927Z,32.55
2022-11-29T05:13:09.028Z,23.20
2022-11-29T05:16:14.818Z,24.40
2022-11-29T05:18:47.471Z,26.63
2022-11-29T05:21:32.203Z,24.63
2022-11-29T05:24:07.934Z,29.38
2022-11-29T05:26:34.894Z,22.98
2022-11-29T05:29:18.105Z,25.40
2022-11-29T05:32:13.093Z,25.35
2022-11-29T05:35:06.024Z,23.20
2022-11-29T05:37:47.218Z,24.08
2022-11-29T05:40:16.410Z,23.80
2022-11-29T05:43:08.076Z,25.38
2022-11-29T05:45:36.444Z,22.17
2022-11-29T05:48:03.209Z,21.33
2022-11-29T05:50:37.999Z,29.05
2022-11-29T05:53:21.538Z,21.27
2022-11-29T05:56:06.762Z,26.00
2022-11-29T05:58:43.565Z,21.63
2022-11-29T06:01:28.857Z,22.75
2022-11-29T06:04:28.741Z,21.20
2022-11-29T06:07:03.287Z,23.35
2022-11-29T06:09:48.781Z,20.88
2022-11-29T06:12:23.815Z,23.10
2022-11-29T06:14:57.094Z,25.27
2022-11-29T06:17:48.773Z,22.65
2022-11-29T06:20:34.935Z,19.17
2022-11-29T06:23:08.517Z,22.75
2022-11-29T06:26:02.328Z,22.50
2022-11-29T06:28:48.862Z,25.98
2022-11-29T06:31:18.773Z,19.98
2022-11-29T06:34:09.339Z,24.88
2022-11-29T06:36:38.637Z,23.33
2022-11-29T06:39:05.648Z,20.55
2022-11-29T06:41:32.467Z,22.85
2022-11-29T06:43:59.455Z,24.50
2022-11-29T06:46:48.352Z,22.85
2022-11-29T06:49:29.166Z,25.08
2022-11-29T06:52:20.425Z,25.58
2022-11-29T06:54:47.385Z,24.73
2022-11-29T06:57:17.300Z,22.88
2022-11-29T07:00:16.748Z,31.90
2022-11-29T07:02:50.440Z,23.90
2022-11-29T07:05:31.741Z,25.70
2022-11-29T07:08:03.651Z,22.02
2022-11-29T07:10:33.587Z,21.60
2022-11-29T07:13:00.560Z,25.60
2022-11-29T07:15:28.153Z,25.83
2022-11-29T07:18:02.314Z,22.90
2022-11-29T07:20:45.427Z,23.05
2022-11-29T07:23:45.086Z,24.00
2022-11-29T07:26:19.971Z,20.77
2022-11-29T07:29:01.375Z,22.42
2022-11-29T07:31:35.374Z,25.00
2022-11-29T07:34:12.715Z,28.65
2022-11-29T07:37:11.868Z,26.65
2022-11-29T07:39:41.553Z,25.17
2022-11-29T07:42:26.957Z,30.17
2022-11-29T07:45:11.791Z,29.45
2022-11-29T07:47:38.648Z,29.45
2022-11-29T07:50:06.007Z,26.25
2022-11-29T07:52:33.445Z,28.75
2022-11-29T07:55:00.272Z,24.30
2022-11-29T07:57:27.014Z,24.70
2022-11-29T07:59:53.781Z,30.52
2022-11-29T08:02:30.846Z,31.20
2022-11-29T08:04:58.012Z,21.65
2022-11-29T08:07:24.878Z,30.20
2022-11-29T08:09:51.657Z,26.92
2022-11-29T08:12:18.532Z,23.45
2022-11-29T08:14:45.573Z,25.90
2022-11-29T08:17:12.535Z,24.02
2022-11-29T08:19:39.276Z,23.23
2022-11-29T08:22:06.139Z,24.52
2022-11-29T08:24:32.870Z,23.95
2022-11-29T08:26:59.604Z,28.63
2022-11-29T08:29:26.422Z,22.50
2022-11-29T08:31:53.981Z,23.17
2022-11-29T08:34:22.359Z,17.58
2022-11-29T08:36:50.047Z,18.50
2022-11-29T08:39:17.120Z,24.00
2022-11-29T08:41:43.886Z,21.65
2022-11-29T08:44:10.582Z,18.80
2022-11-29T08:46:55.933Z,17.17
2022-11-29T08:49:22.689Z,19.35
2022-11-29T08:51:52.216Z,17.63
2022-11-29T08:54:18.991Z,17.20
2022-11-29T08:59:32.593Z,14.30
2022-11-29T09:01:59.490Z,16.20
2022-11-29T09:04:26.438Z,14.90
2022-11-29T09:06:53.148Z,16.30
2022-11-29T09:09:19.862Z,16.73
2022-11-29T09:11:49.371Z,16.55
2022-11-29T09:14:17.009Z,15.73
2022-11-29T09:16:43.752Z,15.88
2022-11-29T09:19:10.634Z,15.93
2022-11-29T09:21:37.357Z,21.13
2022-11-29T09:24:06.472Z,17.55
2022-11-29T09:26:36.075Z,19.35
2022-11-29T09:29:04.462Z,15.40
2022-11-29T09:31:32.450Z,13.18
2022-11-29T09:33:59.258Z,14.00
2022-11-29T09:36:28.717Z,13.60
2022-11-29T09:38:56.189Z,20.27
2022-11-29T09:41:43.007Z,15.70
2022-11-29T09:44:22.612Z,17.50
2022-11-29T09:47:08.407Z,19.15
2022-11-29T09:50:12.865Z,20.73
2022-11-29T09:52:57.385Z,17.27
2022-11-29T09:55:50.187Z,16.92
2022-11-29T09:58:20.904Z,14.80
2022-11-29T10:00:51.659Z,18.45
2022-11-29T10:03:28.874Z,13.50
2022-11-29T10:06:04.864Z,17.35
2022-11-29T10:08:36.306Z,17.73
2022-11-29T10:11:14.812Z,13.35
2022-11-29T10:13:45.736Z,14.43
2022-11-29T10:16:22.529Z,15.52
2022-11-29T10:18:58.933Z,10.98
2022-11-29T10:21:29.770Z,15.43
2022-11-29T10:23:59.820Z,13.40
2022-11-29T10:26:32.039Z,17.75
2022-11-29T10:29:01.705Z,14.25
2022-11-29T10:31:42.864Z,13.65
2022-11-29T10:34:17.955Z,16.08
2022-11-29T10:36:47.428Z,14.27
2022-11-29T10:39:21.121Z,11.60
2022-11-29T10:41:52.253Z,14.82
2022-11-29T10:44:20.321Z,13.50
2022-11-29T10:46:47.012Z,14.27
2022-11-29T10:49:17.090Z,13.95
2022-11-29T10:51:45.036Z,15.02
2022-11-29T10:54:27.219Z,14.57
2022-11-29T10:56:56.715Z,14.80
2022-11-29T10:59:28.253Z,16.75
2022-11-29T11:01:55.142Z,14.40
2022-11-29T11:04:27.949Z,12.95
2022-11-29T11:06:59.897Z,12.88
2022-11-29T11:09:34.780Z,15.18
2022-11-29T11:12:04.785Z,10.98
2022-11-29T11:14:37.614Z,13.63
2022-11-29T11:17:26.202Z,13.13
2022-11-29T11:20:01.159Z,16.48
2022-11-29T11:22:28.870Z,14.82
2022-11-29T11:25:01.075Z,15.02
2022-11-29T11:27:40.091Z,15.73
2022-11-29T11:30:21.963Z,14.02
2022-11-29T11:33:08.321Z,14.68
2022-11-29T11:35:37.177Z,10.55
2022-11-29T11:38:03.949Z,13.38
2022-11-29T11:40:31.245Z,14.55
2022-11-29T11:42:59.855Z,12.25
2022-11-29T11:45:36.685Z,12.18
2022-11-29T11:48:12.313Z,13.27
2022-11-29T11:51:05.523Z,14.15
2022-11-29T11:53:36.343Z,12.25
2022-11-29T11:56:06.544Z,10.07
2022-11-29T11:58:54.489Z,10.63
2022-11-29T12:01:28.928Z,13.27
2022-11-29T12:04:04.724Z,11.65
2022-11-29T12:06:37.578Z,17.02
2022-11-29T12:09:28.573Z,13.98
2022-11-29T12:12:20.360Z,14.73
2022-11-29T12:14:58.330Z,10.50
2022-11-29T12:17:31.238Z,8.85
2022-11-29T12:20:04.603Z,8.98
2022-11-29T12:22:41.513Z,11.80
2022-11-29T12:25:16.022Z,10.18
2022-11-29T12:27:42.873Z,12.03
2022-11-29T12:30:15.605Z,10.52
2022-11-29T12:32:44.949Z,10.32
2022-11-29T12:35:23.603Z,9.35
2022-11-29T12:38:08.281Z,10.45
2022-11-29T12:41:03.473Z,8.57
2022-11-29T12:43:45.542Z,7.57
2022-11-29T12:46:23.548Z,8.65
2022-11-29T12:49:12.049Z,8.15
2022-11-29T12:51:54.925Z,7.38
2022-11-29T12:54:43.183Z,9.98
2022-11-29T12:57:14.692Z,7.97
2022-11-29T12:59:47.610Z,8.90
2022-11-29T13:02:24.427Z,10.20
2022-11-29T13:05:12.927Z,9.45
2022-11-29T13:07:59.262Z,9.27
2022-11-29T13:10:37.430Z,10.63
2022-11-29T13:13:41.837Z,9.70
2022-11-29T13:16:31.034Z,9.60
2022-11-29T13:19:25.237Z,11.07
2022-11-29T13:21:57.941Z,10.95
2022-11-29T13:24:32.730Z,13.60
2022-11-29T13:27:03.174Z,11.60
2022-11-29T13:29:30.107Z,10.93
2022-11-29T13:31:57.817Z,11.32
2022-11-29T13:34:30.334Z,11.27
2022-11-29T13:37:20.899Z,18.27
2022-11-29T13:40:06.621Z,14.77
2022-11-29T13:42:59.958Z,14.35
2022-11-29T13:45:42.819Z,15.82
2022-11-29T13:48:28.278Z,13.05
2022-11-29T13:50:56.078Z,15.20
2022-11-29T13:53:30.820Z,17.88
2022-11-29T13:56:02.046Z,17.40
2022-11-29T13:58:28.731Z,12.93
2022-11-29T14:01:14.427Z,16.20
2022-11-29T14:03:42.712Z,15.25
2022-11-29T14:06:13.505Z,13.95
2022-11-29T14:09:17.677Z,15.25
2022-11-29T14:11:49.599Z,14.43
2022-11-29T14:14:16.245Z,13.13
2022-11-29T14:16:42.999Z,11.57
2022-11-29T14:19:13.019Z,10.35
2022-11-29T14:22:07.271Z,15.27
2022-11-29T14:24:36.830Z,14.10
2022-11-29T14:27:06.314Z,14.85
2022-11-29T14:29:53.611Z,16.17
2022-11-29T14:32:46.364Z,12.65
2022-11-29T14:35:14.995Z,13.48
2022-11-29T14:38:06.434Z,13.98
2022-11-29T14:40:42.129Z,14.05
2022-11-29T14:43:27.328Z,13.93
2022-11-29T14:46:16.000Z,15.15
2022-11-29T14:48:56.763Z,12.18
2022-11-29T14:51:25.412Z,11.15
2022-11-29T14:54:05.216Z,13.50
2022-11-29T14:56:31.981Z,14.40
2022-11-29T14:59:36.122Z,12.07
2022-11-29T15:02:07.505Z,13.18
2022-11-29T15:04:35.852Z,13.40
2022-11-29T15:07:03.195Z,12.40
2022-11-29T15:09:32.561Z,11.18
2022-11-29T15:12:02.626Z,13.38
2022-11-29T15:14:48.078Z,14.77
2022-11-29T15:17:27.022Z,14.55
2022-11-29T15:20:30.861Z,14.77
2022-11-29T15:25:33.624Z,12.55
2022-11-29T15:28:05.887Z,15.27
2022-11-29T15:30:42.037Z,14.25
2022-11-29T15:33:24.897Z,13.63
2022-11-29T15:35:57.157Z,17.42
2022-11-29T15:38:24.477Z,14.00
2022-11-29T15:40:53.443Z,14.43
2022-11-29T15:43:23.667Z,14.43
2022-11-29T15:45:55.458Z,12.32
2022-11-29T15:48:27.126Z,14.90
2022-11-29T15:50:56.745Z,14.48
2022-11-29T15:53:44.749Z,14.45
2022-11-29T15:56:35.855Z,13.55
2022-11-29T15:59:09.259Z,16.67
2022-11-29T16:01:37.588Z,14.32
2022-11-29T16:04:04.462Z,15.80
2022-11-29T16:06:34.421Z,15.30
2022-11-29T16:09:01.574Z,18.30
2022-11-29T16:11:31.044Z,14.98
2022-11-29T16:14:11.858Z,14.70
2022-11-29T16:16:40.244Z,14.90
2022-11-29T16:19:34.392Z,13.77
2022-11-29T16:22:09.877Z,16.77
2022-11-29T16:24:40.961Z,16.05
2022-11-29T16:27:08.140Z,16.20
2022-11-29T16:29:37.774Z,16.80
2022-11-29T16:32:14.977Z,16.98
2022-11-29T16:34:43.089Z,17.30
2022-11-29T16:37:25.105Z,17.08
2022-11-29T16:39:55.562Z,16.65
2022-11-29T16:42:28.159Z,14.60
2022-11-29T16:45:00.216Z,12.85
2022-11-29T16:47:29.793Z,20.63
2022-11-29T16:50:21.061Z,16.80
2022-11-29T16:52:52.009Z,16.15
2022-11-29T16:55:21.972Z,22.13
2022-11-29T16:57:48.926Z,19.60
2022-11-29T17:00:25.541Z,22.00
2022-11-29T17:02:52.294Z,21.02
2022-11-29T17:05:19.194Z,16.85
2022-11-29T17:07:46.211Z,19.48
2022-11-29T17:10:17.844Z,19.08
2022-11-29T17:12:48.198Z,24.48
2022-11-29T17:15:16.667Z,26.55
2022-11-29T17:17:46.062Z,20.50
2022-11-29T17:20:14.036Z,18.73
2022-11-29T17:22:41.292Z,20.60
2022-11-29T17:25:08.510Z,22.38
2022-11-29T17:27:35.726Z,25.67
2022-11-29T17:30:03.475Z,26.33
2022-11-29T17:32:31.080Z,24.40
2022-11-29T17:34:57.794Z,21.80
2022-11-29T17:37:24.433Z,24.08
2022-11-29T17:39:51.460Z,23.23
2022-11-29T17:42:18.279Z,32.42
2022-11-29T17:44:44.931Z,30.17
2022-11-29T17:47:11.572Z,35.08
2022-11-29T17:49:38.218Z,35.05
2022-11-29T17:52:05.286Z,38.22
2022-11-29T17:54:35.948Z,36.67
2022-11-29T17:57:04.424Z,37.15
2022-11-29T17:59:31.088Z,36.90
2022-11-29T18:01:57.736Z,39.47
2022-11-29T18:04:24.408Z,40.72
2022-11-29T18:06:51.118Z,41.80
2022-11-29T18:09:18.527Z,38.85
2022-11-29T18:11:49.008Z,33.78
2022-11-29T18:14:22.825Z,37.28
2022-11-29T18:16:50.084Z,38.83
2022-11-29T18:19:19.004Z,38.88
2022-11-29T18:21:46.146Z,42.90
2022-11-29T18:24:12.938Z,41.28
2022-11-29T18:26:40.155Z,44.05
2022-11-29T18:29:07.408Z,40.50
2022-11-29T18:31:36.291Z,38.25
2022-11-29T18:34:09.829Z,39.42
2022-11-29T18:36:39.562Z,37.72
2022-11-29T18:39:08.948Z,41.75
2022-11-29T18:41:36.039Z,40.75
2022-11-29T18:44:08.286Z,42.72
2022-11-29T18:46:37.349Z,44.17
2022-11-29T18:49:06.561Z,43.22
2022-11-29T18:51:34.173Z,40.78
2022-11-29T18:54:01.353Z,37.40
2022-11-29T18:56:30.574Z,43.47
2022-11-29T18:58:59.877Z,51.10
2022-11-29T19:01:28.605Z,44.78
2022-11-29T19:03:57.728Z,40.22
2022-11-29T19:06:39.318Z,44.38
2022-11-29T19:09:11.124Z,46.05
2022-11-29T19:11:37.857Z,42.92
2022-11-29T19:14:06.444Z,35.88
2022-11-29T19:16:34.514Z,39.58
2022-11-29T19:19:01.556Z,44.53
2022-11-29T19:21:31.653Z,45.47
2022-11-29T19:24:00.104Z,42.78
2022-11-29T19:26:28.086Z,40.45
2022-11-29T19:28:55.113Z,42.45
2022-11-29T19:31:24.988Z,50.25
2022-11-29T19:33:52.577Z,50.53
2022-11-29T19:36:30.532Z,52.08
2022-11-29T19:38:59.573Z,44.67
2022-11-29T19:41:28.673Z,39.80
2022-11-29T19:44:00.109Z,42.95
2022-11-29T19:46:29.607Z,44.60
2022-11-29T19:48:57.357Z,42.42
2022-11-29T19:51:25.093Z,45.17
2022-11-29T19:53:53.430Z,41.25
2022-11-29T19:56:20.807Z,35.55
2022-11-29T19:58:48.821Z,40.85
2022-11-29T20:01:25.014Z,42.58
2022-11-29T20:03:52.543Z,41.05
2022-11-29T20:06:19.447Z,45.22
2022-11-29T20:08:46.235Z,36.38
2022-11-29T20:11:16.267Z,39.85
2022-11-29T20:13:44.504Z,41.95
2022-11-29T20:16:15.904Z,40.67
2022-11-29T20:18:50.356Z,38.80
2022-11-29T20:21:29.156Z,44.70
2022-11-29T20:23:56.945Z,40.03
2022-11-29T20:26:24.058Z,36.33
2022-11-29T20:28:50.884Z,38.83
2022-11-29T20:31:21.230Z,39.00
2022-11-29T20:33:51.233Z,43.63
2022-11-29T20:36:55.404Z,38.85
2022-11-29T20:39:42.446Z,43.58
2022-11-29T20:42:37.380Z,49.60
2022-11-29T20:45:10.682Z,38.55
2022-11-29T20:47:55.918Z,41.70
2022-11-29T20:50:28.115Z,37.90
2022-11-29T20:53:15.494Z,38.83
2022-11-29T20:55:48.108Z,39.40
2022-11-29T20:58:16.160Z,41.95
2022-11-29T21:00:43.331Z,45.53
2022-11-29T21:03:14.507Z,44.08
2022-11-29T21:05:41.959Z,42.20
2022-11-29T21:08:08.817Z,42.00
2022-11-29T21:10:35.887Z,40.92
2022-11-29T21:13:05.220Z,39.88
2022-11-29T21:15:35.449Z,42.08
2022-11-29T21:18:02.707Z,49.83
2022-11-29T21:20:29.772Z,47.00
2022-11-29T21:23:07.002Z,40.13
2022-11-29T21:25:54.360Z,41.17
2022-11-29T21:28:25.099Z,42.03
2022-11-29T21:30:52.124Z,48.17
2022-11-29T21:33:19.111Z,53.63
2022-11-29T21:35:45.871Z,41.05
2022-11-29T21:38:22.577Z,41.92
2022-11-29T21:40:49.360Z,39.60
2022-11-29T21:43:16.084Z,35.72
2022-11-29T21:45:42.940Z,39.65
2022-11-29T21:48:29.639Z,37.65
2022-11-29T21:50:56.621Z,40.95
2022-11-29T21:53:23.739Z,36.17
2022-11-29T21:55:56.326Z,36.70
2022-11-29T21:58:23.080Z,36.33
2022-11-29T22:00:49.802Z,40.15
2022-11-29T22:03:17.044Z,36.25
2022-11-29T22:05:43.784Z,43.35
2022-11-29T22:08:10.585Z,38.67
2022-11-29T22:10:37.380Z,35.72
2022-11-29T22:13:04.226Z,35.15
2022-11-29T22:15:32.011Z,41.67
2022-11-29T22:17:59.108Z,32.22
2022-11-29T22:20:25.873Z,36.47
2022-11-29T22:22:58.439Z,38.28
2022-11-29T22:25:25.487Z,35.90
2022-11-29T22:27:52.234Z,40.63
2022-11-29T22:30:19.736Z,40.35
2022-11-29T22:32:46.613Z,44.28
2022-11-29T22:35:13.337Z,56.35
2022-11-29T22:37:40.088Z,46.05
2022-11-29T22:40:07.321Z,47.70
2022-11-29T22:42:34.182Z,47.83
2022-11-29T22:45:02.146Z,48.65
2022-11-29T22:47:28.899Z,47.67
2022-11-29T22:49:55.725Z,41.83
2022-11-29T22:52:22.458Z,41.92
2022-11-29T22:54:49.380Z,41.05
2022-11-29T22:57:16.321Z,41.60
2022-11-29T22:59:43.166Z,42.97
2022-11-29T23:02:09.946Z,48.45
2022-11-29T23:04:36.708Z,44.97
2022-11-29T23:07:03.520Z,43.72
2022-11-29T23:09:30.163Z,37.40
2022-11-29T23:11:57.177Z,46.42
2022-11-29T23:14:23.966Z,42.42
2022-11-29T23:16:50.926Z,36.72
2022-11-29T23:19:17.880Z,38.75
2022-11-29T23:21:45.905Z,36.85
2022-11-29T23:24:14.196Z,43.10
2022-11-29T23:26:44.108Z,40.58
2022-11-29T23:29:14.137Z,38.22
2022-11-29T23:31:41.016Z,35.00
2022-11-29T23:34:08.286Z,38.13
2022-11-29T23:36:35.199Z,39.00
2022-11-29T23:39:04.422Z,41.75
2022-11-29T23:41:31.233Z,47.08
2022-11-29T23:43:59.652Z,49.97
2022-11-29T23:46:26.711Z,50.22
2022-11-29T23:48:53.411Z,55.80
2022-11-29T23:51:20.472Z,49.28
2022-11-29T23:53:52.258Z,45.22
2022-11-29T23:56:19.977Z,54.90
2022-11-29T23:58:47.285Z,56.65
